PWSweather.com
Personal Weather Stations
Station Observations
CANDIOTINO
Barrio Candioti Norte, Santa FeAR 3000

Barrio Candioti NorteSanta FeAR 3000

Lat: -31.632778, Lon: -60.695556

Elevation: 69

Station Type: WH-1081

http://www.eltiempoensantafe.com.ar

High Low Average
Temperature 65.1°F18.4°C 58.8°F14.9°C 62.2°F16.8°C
Dew Point 60.2°F15.7°C 54.5°F12.5°C 57.4°F14.1°C
Winds 9.8 mph 15.8 kmh Calm Calm 3.0 mph SE4.8 kmh SE
Wind Gusts 15.9 mph25.6 kmh 1.6 mph2.6 kmh 7.0 mph11.3 kmh
Humidity 94% 72% 84%
Pressure 29.97 in1014.9 mb 29.86 in1011.2 mb -
Precipitation 0.31 in7.9 mm - -
Hour Temp Dew Point Humidity Winds Wind Gusts Pressure Precip Precip Rate Daily Precip Total
12:00 AM 63.7°F17.6°C 54.5°F12.5°C 72% 3.8 mph SE6.1 kmh SE 12.1 mph19.5 kmh 29.92 in1013.2 mb 0.00 in0.0 mm 0.00 in0.0 mm 0.00 in0.0 mm
12:15 AM 63.7°F17.6°C 54.9°F12.7°C 73% 7.6 mph ESE12.2 kmh ESE 9.8 mph15.8 kmh 29.91 in1012.9 mb 0.00 in0.0 mm 0.00 in0.0 mm 0.00 in0.0 mm
12:30 AM 63.5°F17.5°C 54.7°F12.6°C 73% 5.4 mph SE8.7 kmh SE 11.4 mph18.3 kmh 29.90 in1012.5 mb 0.00 in0.0 mm 0.00 in0.0 mm 0.00 in0.0 mm
12:45 AM 63.3°F17.4°C 54.9°F12.7°C 74% 3.8 mph ESE6.1 kmh ESE 6.9 mph11.1 kmh 29.91 in1012.9 mb 0.00 in0.0 mm 0.00 in0.0 mm 0.00 in0.0 mm
01:00 AM 63.5°F17.5°C 55.1°F12.8°C 74% 3.1 mph E5.0 kmh E 6.9 mph11.1 kmh 29.90 in1012.5 mb 0.00 in0.0 mm 0.00 in0.0 mm 0.00 in0.0 mm
01:15 AM 63.5°F17.5°C 55.1°F12.8°C 74% 5.4 mph ESE8.7 kmh ESE 10.7 mph17.2 kmh 29.89 in1012.2 mb 0.00 in0.0 mm 0.00 in0.0 mm 0.00 in0.0 mm
01:30 AM 63.1°F17.3°C 54.7°F12.6°C 74% 2.2 mph SE3.5 kmh SE 9.8 mph15.8 kmh 29.88 in1011.9 mb 0.00 in0.0 mm 0.00 in0.0 mm 0.00 in0.0 mm
01:45 AM 63.0°F17.2°C 54.9°F12.7°C 75% 6.0 mph E9.7 kmh E 9.8 mph15.8 kmh 29.88 in1011.9 mb 0.00 in0.0 mm 0.00 in0.0 mm 0.00 in0.0 mm
02:00 AM 63.0°F17.2°C 54.9°F12.7°C 75% 3.1 mph E5.0 kmh E 9.2 mph14.8 kmh 29.89 in1012.2 mb 0.00 in0.0 mm 0.00 in0.0 mm 0.00 in0.0 mm
02:15 AM 63.0°F17.2°C 55.3°F12.9°C 76% 2.2 mph NE3.5 kmh NE 7.6 mph12.2 kmh 29.88 in1011.9 mb 0.00 in0.0 mm 0.00 in0.0 mm 0.00 in0.0 mm
02:30 AM 62.8°F17.1°C 55.5°F13.1°C 77% 2.2 mph E3.5 kmh E 7.6 mph12.2 kmh 29.88 in1011.9 mb 0.00 in0.0 mm 0.00 in0.0 mm 0.00 in0.0 mm
02:45 AM 62.8°F17.1°C 55.5°F13.1°C 77% 2.2 mph SE3.5 kmh SE 6.0 mph9.7 kmh 29.88 in1011.9 mb 0.00 in0.0 mm 0.00 in0.0 mm 0.00 in0.0 mm
03:00 AM 62.4°F16.9°C 55.8°F13.2°C 79% 3.1 mph SSE5.0 kmh SSE 5.4 mph8.7 kmh 29.87 in1011.5 mb 0.01 in0.3 mm 0.01 in0.3 mm 0.01 in0.3 mm
03:15 AM 62.1°F16.7°C 56.5°F13.6°C 82% 6.0 mph S9.7 kmh S 8.3 mph13.4 kmh 29.88 in1011.9 mb 0.01 in0.3 mm 0.00 in0.0 mm 0.01 in0.3 mm
03:30 AM 62.4°F16.9°C 56.9°F13.8°C 82% 9.8 mph SSE15.8 kmh SSE 14.5 mph23.3 kmh 29.86 in1011.2 mb 0.02 in0.5 mm 0.04 in1.0 mm 0.02 in0.5 mm
03:45 AM 62.2°F16.8°C 56.7°F13.7°C 82% 3.8 mph S6.1 kmh S 11.4 mph18.3 kmh 29.89 in1012.2 mb 0.02 in0.5 mm 0.00 in0.0 mm 0.02 in0.5 mm
04:00 AM 62.2°F16.8°C 57.0°F13.9°C 83% 3.1 mph SW5.0 kmh SW 8.3 mph13.4 kmh 29.90 in1012.5 mb 0.01 in0.3 mm 0.00 in0.0 mm 0.02 in0.5 mm
04:15 AM 62.4°F16.9°C 57.2°F14.0°C 83% 3.8 mph WSW6.1 kmh WSW 9.2 mph14.8 kmh 29.91 in1012.9 mb 0.01 in0.3 mm 0.00 in0.0 mm 0.02 in0.5 mm
04:30 AM 62.4°F16.9°C 57.2°F14.0°C 83% 3.1 mph SW5.0 kmh SW 9.2 mph14.8 kmh 29.91 in1012.9 mb 0.00 in0.0 mm 0.00 in0.0 mm 0.02 in0.5 mm
04:45 AM 61.9°F16.6°C 57.0°F13.9°C 84% 6.0 mph SSW9.7 kmh SSW 11.4 mph18.3 kmh 29.91 in1012.9 mb 0.00 in0.0 mm 0.00 in0.0 mm 0.02 in0.5 mm
05:00 AM 61.7°F16.5°C 57.2°F14.0°C 85% 6.9 mph S11.1 kmh S 13.0 mph20.9 kmh 29.92 in1013.2 mb 0.00 in0.0 mm 0.00 in0.0 mm 0.02 in0.5 mm
05:15 AM 61.5°F16.4°C 57.0°F13.9°C 85% 7.6 mph S12.2 kmh S 14.5 mph23.3 kmh 29.92 in1013.2 mb 0.00 in0.0 mm 0.00 in0.0 mm 0.02 in0.5 mm
05:30 AM 61.0°F16.1°C 56.8°F13.8°C 86% 9.2 mph S14.8 kmh S 15.9 mph25.6 kmh 29.93 in1013.5 mb 0.00 in0.0 mm 0.00 in0.0 mm 0.02 in0.5 mm
05:45 AM 60.4°F15.8°C 56.9°F13.8°C 88% 9.8 mph S15.8 kmh S 15.9 mph25.6 kmh 29.92 in1013.2 mb 0.00 in0.0 mm 0.00 in0.0 mm 0.02 in0.5 mm
06:00 AM 60.1°F15.6°C 56.5°F13.6°C 88% 6.0 mph S9.7 kmh S 10.7 mph17.2 kmh 29.93 in1013.5 mb 0.00 in0.0 mm 0.00 in0.0 mm 0.02 in0.5 mm
06:15 AM 59.7°F15.4°C 56.5°F13.6°C 89% 7.6 mph S12.2 kmh S 11.4 mph18.3 kmh 29.94 in1013.9 mb 0.00 in0.0 mm 0.00 in0.0 mm 0.02 in0.5 mm
06:30 AM 59.7°F15.4°C 56.5°F13.6°C 89% 4.5 mph S7.2 kmh S 9.8 mph15.8 kmh 29.92 in1013.2 mb 0.01 in0.3 mm 0.04 in1.0 mm 0.04 in1.0 mm
06:45 AM 59.5°F15.3°C 56.6°F13.7°C 90% 5.4 mph SSE8.7 kmh SSE 10.7 mph17.2 kmh 29.91 in1012.9 mb 0.02 in0.5 mm 0.04 in1.0 mm 0.05 in1.3 mm
07:00 AM 59.4°F15.2°C 56.4°F13.6°C 90% 7.6 mph SE12.2 kmh SE 12.1 mph19.5 kmh 29.91 in1012.9 mb 0.06 in1.5 mm 0.05 in1.3 mm 0.08 in2.0 mm
07:15 AM 59.2°F15.1°C 56.6°F13.7°C 91% 3.1 mph SSE5.0 kmh SSE 8.3 mph13.4 kmh 29.92 in1013.2 mb 0.14 in3.6 mm 0.32 in8.1 mm 0.17 in4.3 mm
07:30 AM 59.0°F15.0°C 56.7°F13.7°C 92% 3.8 mph SSE6.1 kmh SSE 9.2 mph14.8 kmh 29.92 in1013.2 mb 0.18 in4.6 mm 0.16 in4.1 mm 0.21 in5.3 mm
07:45 AM 59.0°F15.0°C 56.7°F13.7°C 92% 3.1 mph S5.0 kmh S 7.6 mph12.2 kmh 29.92 in1013.2 mb 0.19 in4.8 mm 0.04 in1.0 mm 0.24 in6.1 mm
08:00 AM 58.8°F14.9°C 57.1°F13.9°C 94% 2.2 mph SSE3.5 kmh SSE 5.4 mph8.7 kmh 29.93 in1013.5 mb 0.18 in4.6 mm 0.00 in0.0 mm 0.26 in6.6 mm
08:15 AM 59.0°F15.0°C 57.0°F13.9°C 93% Calm Calm 3.8 mph6.1 kmh 29.93 in1013.5 mb 0.09 in2.3 mm 0.00 in0.0 mm 0.27 in6.9 mm
08:30 AM 59.2°F15.1°C 57.5°F14.2°C 94% 0.7 mph SE1.1 kmh SE 1.6 mph2.6 kmh 29.93 in1013.5 mb 0.07 in1.8 mm 0.00 in0.0 mm 0.28 in7.1 mm
08:45 AM 59.0°F15.0°C 57.3°F14.1°C 94% 1.6 mph SSE2.6 kmh SSE 3.1 mph5.0 kmh 29.93 in1013.5 mb 0.05 in1.3 mm 0.00 in0.0 mm 0.28 in7.1 mm
09:00 AM 59.0°F15.0°C 57.3°F14.1°C 94% 2.2 mph SE3.5 kmh SE 3.8 mph6.1 kmh 29.94 in1013.9 mb 0.04 in1.0 mm 0.00 in0.0 mm 0.30 in7.6 mm
09:15 AM 59.2°F15.1°C 57.5°F14.2°C 94% 2.2 mph SE3.5 kmh SE 5.4 mph8.7 kmh 29.93 in1013.5 mb 0.02 in0.5 mm 0.00 in0.0 mm 0.30 in7.6 mm
09:30 AM 59.4°F15.2°C 57.6°F14.2°C 94% 3.8 mph ESE6.1 kmh ESE 6.0 mph9.7 kmh 29.93 in1013.5 mb 0.01 in0.3 mm 0.00 in0.0 mm 0.30 in7.6 mm
09:45 AM 59.4°F15.2°C 57.6°F14.2°C 94% 2.2 mph E3.5 kmh E 5.4 mph8.7 kmh 29.95 in1014.2 mb 0.01 in0.3 mm 0.00 in0.0 mm 0.30 in7.6 mm
10:00 AM 59.5°F15.3°C 57.8°F14.3°C 94% 1.6 mph NE2.6 kmh NE 4.5 mph7.2 kmh 29.96 in1014.6 mb 0.00 in0.0 mm 0.00 in0.0 mm 0.30 in7.6 mm
10:15 AM 59.7°F15.4°C 58.0°F14.4°C 94% 1.6 mph SW2.6 kmh SW 5.4 mph8.7 kmh 29.96 in1014.6 mb 0.00 in0.0 mm 0.00 in0.0 mm 0.30 in7.6 mm
10:30 AM 60.6°F15.9°C 58.9°F14.9°C 94% Calm Calm 3.1 mph5.0 kmh 29.96 in1014.6 mb 0.00 in0.0 mm 0.00 in0.0 mm 0.30 in7.6 mm
10:45 AM 61.5°F16.4°C 59.5°F15.3°C 93% 2.2 mph E3.5 kmh E 3.8 mph6.1 kmh 29.96 in1014.6 mb 0.00 in0.0 mm 0.00 in0.0 mm 0.30 in7.6 mm
11:00 AM 62.2°F16.8°C 60.2°F15.7°C 93% Calm Calm 2.2 mph3.5 kmh 29.96 in1014.6 mb 0.00 in0.0 mm 0.00 in0.0 mm 0.30 in7.6 mm
11:15 AM 62.1°F16.7°C 59.7°F15.4°C 92% 3.1 mph SSW5.0 kmh SSW 6.0 mph9.7 kmh 29.97 in1014.9 mb 0.00 in0.0 mm 0.00 in0.0 mm 0.30 in7.6 mm
11:30 AM 62.1°F16.7°C 59.4°F15.2°C 91% Calm Calm 6.0 mph9.7 kmh 29.97 in1014.9 mb 0.00 in0.0 mm 0.00 in0.0 mm 0.30 in7.6 mm
11:45 AM 62.2°F16.8°C 59.0°F15.0°C 89% 2.2 mph S3.5 kmh S 8.3 mph13.4 kmh 29.96 in1014.6 mb 0.00 in0.0 mm 0.00 in0.0 mm 0.30 in7.6 mm
12:00 PM 61.7°F16.5°C 57.8°F14.3°C 87% 5.4 mph S8.7 kmh S 11.4 mph18.3 kmh 29.95 in1014.2 mb 0.01 in0.3 mm 0.01 in0.3 mm 0.31 in7.9 mm
12:15 PM 61.9°F16.6°C 58.0°F14.4°C 87% 4.5 mph S7.2 kmh S 10.7 mph17.2 kmh 29.95 in1014.2 mb 0.01 in0.3 mm 0.00 in0.0 mm 0.31 in7.9 mm
12:30 PM 62.4°F16.9°C 58.2°F14.6°C 86% 3.8 mph S6.1 kmh S 9.8 mph15.8 kmh 29.95 in1014.2 mb 0.01 in0.3 mm 0.00 in0.0 mm 0.31 in7.9 mm
12:45 PM 62.1°F16.7°C 57.8°F14.3°C 86% 5.4 mph S8.7 kmh S 12.1 mph19.5 kmh 29.93 in1013.5 mb 0.01 in0.3 mm 0.00 in0.0 mm 0.31 in7.9 mm
01:00 PM 62.2°F16.8°C 58.0°F14.4°C 86% 4.5 mph SSE7.2 kmh SSE 10.7 mph17.2 kmh 29.92 in1013.2 mb 0.00 in0.0 mm 0.00 in0.0 mm 0.31 in7.9 mm
01:15 PM 62.8°F17.1°C 58.2°F14.6°C 85% 6.0 mph S9.7 kmh S 9.8 mph15.8 kmh 29.92 in1013.2 mb 0.00 in0.0 mm 0.00 in0.0 mm 0.31 in7.9 mm
01:30 PM 63.0°F17.2°C 58.1°F14.5°C 84% 3.8 mph S6.1 kmh S 10.7 mph17.2 kmh 29.91 in1012.9 mb 0.00 in0.0 mm 0.00 in0.0 mm 0.31 in7.9 mm
01:45 PM 62.6°F17.0°C 57.4°F14.1°C 83% 6.9 mph S11.1 kmh S 12.1 mph19.5 kmh 29.91 in1012.9 mb 0.00 in0.0 mm 0.00 in0.0 mm 0.31 in7.9 mm
02:00 PM 62.4°F16.9°C 57.5°F14.2°C 84% 3.8 mph S6.1 kmh S 9.8 mph15.8 kmh 29.90 in1012.5 mb 0.00 in0.0 mm 0.00 in0.0 mm 0.31 in7.9 mm
02:15 PM 62.6°F17.0°C 57.4°F14.1°C 83% 3.8 mph S6.1 kmh S 9.2 mph14.8 kmh 29.90 in1012.5 mb 0.00 in0.0 mm 0.00 in0.0 mm 0.31 in7.9 mm
02:30 PM 62.8°F17.1°C 57.6°F14.2°C 83% 4.5 mph S7.2 kmh S 9.2 mph14.8 kmh 29.89 in1012.2 mb 0.00 in0.0 mm 0.00 in0.0 mm 0.31 in7.9 mm
02:45 PM 62.8°F17.1°C 57.6°F14.2°C 83% 3.1 mph S5.0 kmh S 9.2 mph14.8 kmh 29.88 in1011.9 mb 0.00 in0.0 mm 0.00 in0.0 mm 0.31 in7.9 mm
03:00 PM 63.3°F17.4°C 58.1°F14.5°C 83% 3.8 mph SE6.1 kmh SE 9.2 mph14.8 kmh 29.87 in1011.5 mb 0.00 in0.0 mm 0.00 in0.0 mm 0.31 in7.9 mm
03:15 PM 63.5°F17.5°C 57.9°F14.4°C 82% 3.1 mph SE5.0 kmh SE 6.9 mph11.1 kmh 29.88 in1011.9 mb 0.00 in0.0 mm 0.00 in0.0 mm 0.31 in7.9 mm
03:30 PM 63.3°F17.4°C 57.7°F14.3°C 82% 3.8 mph SE6.1 kmh SE 8.3 mph13.4 kmh 29.88 in1011.9 mb 0.00 in0.0 mm 0.00 in0.0 mm 0.31 in7.9 mm
03:45 PM 63.1°F17.3°C 57.9°F14.4°C 83% 6.0 mph SSE9.7 kmh SSE 8.3 mph13.4 kmh 29.88 in1011.9 mb 0.00 in0.0 mm 0.00 in0.0 mm 0.31 in7.9 mm
04:00 PM 63.3°F17.4°C 58.1°F14.5°C 83% 5.4 mph S8.7 kmh S 9.2 mph14.8 kmh 29.88 in1011.9 mb 0.00 in0.0 mm 0.00 in0.0 mm 0.31 in7.9 mm
04:15 PM 63.5°F17.5°C 58.3°F14.6°C 83% 4.5 mph SE7.2 kmh SE 9.2 mph14.8 kmh 29.87 in1011.5 mb 0.00 in0.0 mm 0.00 in0.0 mm 0.31 in7.9 mm
04:30 PM 64.2°F17.9°C 59.0°F15.0°C 83% 3.1 mph SSE5.0 kmh SSE 6.9 mph11.1 kmh 29.87 in1011.5 mb 0.00 in0.0 mm 0.00 in0.0 mm 0.31 in7.9 mm
04:45 PM 63.9°F17.7°C 58.6°F14.8°C 83% 3.8 mph SE6.1 kmh SE 9.8 mph15.8 kmh 29.87 in1011.5 mb 0.00 in0.0 mm 0.00 in0.0 mm 0.31 in7.9 mm
05:00 PM 64.2°F17.9°C 59.0°F15.0°C 83% 3.1 mph SSE5.0 kmh SSE 7.6 mph12.2 kmh 29.89 in1012.2 mb 0.00 in0.0 mm 0.00 in0.0 mm 0.31 in7.9 mm
05:15 PM 64.6°F18.1°C 59.0°F15.0°C 82% 3.8 mph SE6.1 kmh SE 5.4 mph8.7 kmh 29.89 in1012.2 mb 0.00 in0.0 mm 0.00 in0.0 mm 0.31 in7.9 mm
05:30 PM 64.9°F18.3°C 59.0°F15.0°C 81% 2.2 mph SSE3.5 kmh SSE 5.4 mph8.7 kmh 29.89 in1012.2 mb 0.00 in0.0 mm 0.00 in0.0 mm 0.31 in7.9 mm
05:45 PM 65.1°F18.4°C 58.8°F14.9°C 80% 2.2 mph SE3.5 kmh SE 4.5 mph7.2 kmh 29.89 in1012.2 mb 0.00 in0.0 mm 0.00 in0.0 mm 0.31 in7.9 mm
06:00 PM 64.6°F18.1°C 58.6°F14.8°C 81% 2.2 mph S3.5 kmh S 5.4 mph8.7 kmh 29.89 in1012.2 mb 0.00 in0.0 mm 0.00 in0.0 mm 0.31 in7.9 mm
06:15 PM 64.4°F18.0°C 58.5°F14.7°C 81% 3.1 mph SE5.0 kmh SE 5.4 mph8.7 kmh 29.89 in1012.2 mb 0.00 in0.0 mm 0.00 in0.0 mm 0.31 in7.9 mm
06:30 PM 64.4°F18.0°C 58.8°F14.9°C 82% 1.6 mph SE2.6 kmh SE 3.8 mph6.1 kmh 29.89 in1012.2 mb 0.00 in0.0 mm 0.00 in0.0 mm 0.31 in7.9 mm
06:45 PM 64.0°F17.8°C 58.5°F14.7°C 82% 1.6 mph ESE2.6 kmh ESE 3.8 mph6.1 kmh 29.89 in1012.2 mb 0.00 in0.0 mm 0.00 in0.0 mm 0.31 in7.9 mm
07:00 PM 63.9°F17.7°C 58.3°F14.6°C 82% 2.2 mph SE3.5 kmh SE 5.4 mph8.7 kmh 29.90 in1012.5 mb 0.00 in0.0 mm 0.00 in0.0 mm 0.31 in7.9 mm
07:15 PM 63.7°F17.6°C 58.1°F14.5°C 82% 0.7 mph SE1.1 kmh SE 3.8 mph6.1 kmh 29.90 in1012.5 mb 0.00 in0.0 mm 0.00 in0.0 mm 0.31 in7.9 mm
07:30 PM 63.7°F17.6°C 58.1°F14.5°C 82% 0.7 mph SE1.1 kmh SE 3.1 mph5.0 kmh 29.91 in1012.9 mb 0.00 in0.0 mm 0.00 in0.0 mm 0.31 in7.9 mm
07:45 PM 63.5°F17.5°C 57.6°F14.2°C 81% Calm Calm 3.8 mph6.1 kmh 29.91 in1012.9 mb 0.00 in0.0 mm 0.00 in0.0 mm 0.31 in7.9 mm
08:00 PM 63.5°F17.5°C 57.6°F14.2°C 81% 0.7 mph SE1.1 kmh SE 3.8 mph6.1 kmh 29.91 in1012.9 mb 0.00 in0.0 mm 0.00 in0.0 mm 0.31 in7.9 mm
08:15 PM 63.3°F17.4°C 57.4°F14.1°C 81% 1.6 mph ESE2.6 kmh ESE 2.2 mph3.5 kmh 29.91 in1012.9 mb 0.00 in0.0 mm 0.00 in0.0 mm 0.31 in7.9 mm
08:30 PM 63.3°F17.4°C 57.4°F14.1°C 81% 1.6 mph SE2.6 kmh SE 4.5 mph7.2 kmh 29.91 in1012.9 mb 0.00 in0.0 mm 0.00 in0.0 mm 0.31 in7.9 mm
08:45 PM 63.3°F17.4°C 57.4°F14.1°C 81% 0.7 mph ESE1.1 kmh ESE 3.1 mph5.0 kmh 29.92 in1013.2 mb 0.00 in0.0 mm 0.00 in0.0 mm 0.31 in7.9 mm
09:00 PM 63.3°F17.4°C 57.7°F14.3°C 82% 2.2 mph S3.5 kmh S 3.1 mph5.0 kmh 29.91 in1012.9 mb 0.00 in0.0 mm 0.00 in0.0 mm 0.31 in7.9 mm
09:15 PM 63.1°F17.3°C 57.6°F14.2°C 82% 2.2 mph SSE3.5 kmh SSE 4.5 mph7.2 kmh 29.92 in1013.2 mb 0.00 in0.0 mm 0.00 in0.0 mm 0.31 in7.9 mm
09:30 PM 63.1°F17.3°C 57.6°F14.2°C 82% 3.1 mph S5.0 kmh S 4.5 mph7.2 kmh 29.92 in1013.2 mb 0.00 in0.0 mm 0.00 in0.0 mm 0.31 in7.9 mm
09:45 PM 63.0°F17.2°C 57.4°F14.1°C 82% 0.7 mph SSE1.1 kmh SSE 6.0 mph9.7 kmh 29.92 in1013.2 mb 0.00 in0.0 mm 0.00 in0.0 mm 0.31 in7.9 mm
10:00 PM 62.8°F17.1°C 57.6°F14.2°C 83% 3.1 mph SSE5.0 kmh SSE 5.4 mph8.7 kmh 29.93 in1013.5 mb 0.00 in0.0 mm 0.00 in0.0 mm 0.31 in7.9 mm
10:15 PM 62.6°F17.0°C 57.4°F14.1°C 83% 2.2 mph SSE3.5 kmh SSE 6.9 mph11.1 kmh 29.92 in1013.2 mb 0.00 in0.0 mm 0.00 in0.0 mm 0.31 in7.9 mm
10:30 PM 62.6°F17.0°C 57.7°F14.3°C 84% 3.1 mph SE5.0 kmh SE 5.4 mph8.7 kmh 29.93 in1013.5 mb 0.00 in0.0 mm 0.00 in0.0 mm 0.31 in7.9 mm
10:45 PM 62.4°F16.9°C 57.9°F14.4°C 85% 0.7 mph SE1.1 kmh SE 6.0 mph9.7 kmh 29.94 in1013.9 mb 0.00 in0.0 mm 0.00 in0.0 mm 0.31 in7.9 mm
11:00 PM 61.9°F16.6°C 57.3°F14.1°C 85% 0.7 mph NE1.1 kmh NE 1.6 mph2.6 kmh 29.94 in1013.9 mb 0.00 in0.0 mm 0.00 in0.0 mm 0.31 in7.9 mm
11:15 PM 61.5°F16.4°C 57.0°F13.9°C 85% Calm Calm 2.2 mph3.5 kmh 29.94 in1013.9 mb 0.00 in0.0 mm 0.00 in0.0 mm 0.31 in7.9 mm
11:30 PM 61.5°F16.4°C 57.3°F14.1°C 86% 0.7 mph E1.1 kmh E 3.8 mph6.1 kmh 29.94 in1013.9 mb 0.00 in0.0 mm 0.00 in0.0 mm 0.31 in7.9 mm
11:45 PM 61.7°F16.5°C 57.2°F14.0°C 85% 2.2 mph ESE3.5 kmh ESE 4.5 mph7.2 kmh 29.94 in1013.9 mb 0.00 in0.0 mm 0.00 in0.0 mm 0.31 in7.9 mm